createdAt,value
2017-12-04T00:01:16.802Z,2.59
2017-12-04T00:03:46.393Z,2.61
2017-12-04T00:06:15.624Z,2.53
2017-12-04T00:08:44.070Z,2.56
2017-12-04T00:11:12.502Z,2.59
2017-12-04T00:13:41.242Z,2.55
2017-12-04T00:16:10.407Z,2.53
2017-12-04T00:18:38.887Z,2.56
2017-12-04T00:21:07.317Z,2.64
2017-12-04T00:23:35.947Z,2.56
2017-12-04T00:26:05.149Z,2.64
2017-12-04T00:28:33.554Z,2.62
2017-12-04T00:31:02.066Z,2.58
2017-12-04T00:33:30.502Z,2.52
2017-12-04T00:35:59.026Z,2.55
2017-12-04T00:38:28.975Z,2.57
2017-12-04T00:40:57.830Z,2.55
2017-12-04T00:43:26.669Z,2.55
2017-12-04T00:45:56.769Z,2.49
2017-12-04T00:48:26.102Z,2.49
2017-12-04T00:50:54.537Z,2.48
2017-12-04T00:53:22.962Z,2.62
2017-12-04T00:55:51.385Z,2.80
2017-12-04T00:58:19.850Z,2.88
2017-12-04T01:00:48.317Z,2.85
2017-12-04T01:03:17.130Z,2.98
2017-12-04T01:05:45.521Z,2.99
2017-12-04T01:08:13.854Z,3.01
2017-12-04T01:10:42.183Z,3.04
2017-12-04T01:13:10.561Z,2.98
2017-12-04T01:15:39.723Z,3.07
2017-12-04T01:18:08.857Z,3.11
2017-12-04T01:20:37.207Z,3.12
2017-12-04T01:23:05.569Z,3.11
2017-12-04T01:25:34.350Z,2.94
2017-12-04T01:28:02.729Z,3.01
2017-12-04T01:30:31.072Z,2.94
2017-12-04T01:33:00.205Z,2.96
2017-12-04T01:35:28.589Z,3.06
2017-12-04T01:37:56.920Z,3.14
2017-12-04T01:40:26.092Z,3.14
2017-12-04T01:42:54.436Z,3.17
2017-12-04T01:45:23.196Z,3.21
2017-12-04T01:47:51.612Z,3.22
2017-12-04T01:50:19.957Z,3.19
2017-12-04T01:52:48.348Z,3.23
2017-12-04T01:55:17.440Z,3.25
2017-12-04T01:57:45.800Z,3.22
2017-12-04T02:00:14.234Z,3.26
2017-12-04T02:02:45.976Z,3.32
2017-12-04T02:05:14.385Z,3.27
2017-12-04T02:07:43.220Z,3.27
2017-12-04T02:10:11.968Z,3.19
2017-12-04T02:12:41.109Z,3.20
2017-12-04T02:15:09.488Z,3.25
2017-12-04T02:17:37.821Z,3.19
2017-12-04T02:20:06.957Z,3.11
2017-12-04T02:22:35.312Z,3.17
2017-12-04T02:25:03.709Z,3.19
2017-12-04T02:27:32.481Z,3.24
2017-12-04T02:30:00.839Z,3.26
2017-12-04T02:32:30.040Z,3.16
2017-12-04T02:34:59.554Z,3.27
2017-12-04T02:37:28.013Z,3.17
2017-12-04T02:39:56.360Z,3.19
2017-12-04T02:42:24.713Z,3.20
2017-12-04T02:44:53.141Z,3.25
2017-12-04T02:47:21.508Z,3.27
2017-12-04T02:49:49.917Z,3.34
2017-12-04T02:52:19.024Z,3.41
2017-12-04T02:54:47.424Z,3.41
2017-12-04T02:57:15.828Z,3.47
2017-12-04T02:59:44.179Z,3.39
2017-12-04T03:02:13.339Z,3.40
2017-12-04T03:04:42.452Z,3.33
2017-12-04T03:07:10.884Z,3.31
2017-12-04T03:09:39.255Z,3.27
2017-12-04T03:12:07.624Z,3.08
2017-12-04T03:14:35.979Z,3.01
2017-12-04T03:17:04.364Z,3.00
2017-12-04T03:19:33.499Z,2.95
2017-12-04T03:22:01.916Z,2.87
2017-12-04T03:24:30.788Z,2.93
2017-12-04T03:26:59.144Z,2.92
2017-12-04T03:29:27.586Z,2.88
2017-12-04T03:31:56.687Z,2.86
2017-12-04T03:34:25.052Z,2.81
2017-12-04T03:36:54.175Z,2.87
2017-12-04T03:39:22.577Z,2.90
2017-12-04T03:41:51.008Z,2.75
2017-12-04T03:44:19.415Z,2.70
2017-12-04T03:46:47.804Z,2.72
2017-12-04T03:49:16.158Z,2.73
2017-12-04T03:51:44.500Z,2.64
2017-12-04T03:54:14.253Z,2.61
2017-12-04T03:56:42.596Z,2.57
2017-12-04T03:59:11.363Z,2.60
2017-12-04T04:01:39.736Z,2.64
2017-12-04T04:04:08.111Z,2.64
2017-12-04T04:06:36.523Z,2.55
2017-12-04T04:09:04.884Z,2.55
2017-12-04T04:11:33.286Z,2.53
2017-12-04T04:14:02.412Z,2.59
2017-12-04T04:16:30.811Z,2.62
2017-12-04T04:18:59.195Z,2.65
2017-12-04T04:21:27.576Z,2.71
2017-12-04T04:23:57.078Z,2.74
2017-12-04T04:26:25.423Z,2.74
2017-12-04T04:28:54.635Z,2.82
2017-12-04T04:31:23.040Z,2.87
2017-12-04T04:33:52.153Z,2.88
2017-12-04T04:36:21.283Z,2.93
2017-12-04T04:38:49.680Z,3.03
2017-12-04T04:41:18.784Z,3.03
2017-12-04T04:43:47.161Z,3.00
2017-12-04T04:46:17.060Z,3.10
2017-12-04T04:48:45.447Z,3.04
2017-12-04T04:51:14.960Z,3.05
2017-12-04T04:53:44.092Z,3.15
2017-12-04T04:56:12.426Z,3.07
2017-12-04T04:58:40.763Z,3.10
2017-12-04T05:01:10.420Z,3.05
2017-12-04T05:03:39.135Z,3.12
2017-12-04T05:06:09.025Z,3.19
2017-12-04T05:08:37.396Z,3.26
2017-12-04T05:11:06.212Z,3.28
2017-12-04T05:13:34.629Z,3.32
2017-12-04T05:16:03.013Z,3.38
2017-12-04T05:18:31.351Z,3.40
2017-12-04T05:21:00.155Z,3.47
2017-12-04T05:23:28.640Z,3.73
2017-12-04T05:25:57.051Z,3.74
2017-12-04T05:28:26.191Z,3.85
2017-12-04T05:30:54.555Z,3.93
2017-12-04T05:33:23.704Z,4.01
2017-12-04T05:35:52.828Z,3.97
2017-12-04T05:38:21.191Z,3.91
2017-12-04T05:40:49.583Z,3.72
2017-12-04T05:43:17.942Z,3.63
2017-12-04T05:45:46.303Z,3.62
2017-12-04T05:48:15.252Z,3.76
2017-12-04T05:50:43.599Z,3.88
2017-12-04T05:53:11.983Z,3.98
2017-12-04T05:55:40.307Z,3.98
2017-12-04T05:58:09.447Z,4.14
2017-12-04T06:00:37.823Z,4.19
2017-12-04T06:03:06.231Z,4.19
2017-12-04T06:05:34.606Z,4.14
2017-12-04T06:08:02.955Z,4.25
2017-12-04T06:10:31.719Z,4.32
2017-12-04T06:13:00.079Z,4.29
2017-12-04T06:15:29.231Z,4.33
2017-12-04T06:17:58.387Z,4.38
2017-12-04T06:20:26.775Z,4.45
2017-12-04T06:22:55.535Z,4.50
2017-12-04T06:25:24.627Z,4.52
2017-12-04T06:27:53.761Z,4.47
2017-12-04T06:30:22.107Z,4.49
2017-12-04T06:32:50.907Z,4.57
2017-12-04T06:35:20.006Z,4.54
2017-12-04T06:37:48.419Z,4.57
2017-12-04T06:40:17.187Z,4.58
2017-12-04T06:42:45.567Z,4.56
2017-12-04T06:45:13.991Z,4.59
2017-12-04T06:47:42.346Z,4.59
2017-12-04T06:50:10.716Z,4.69
2017-12-04T06:52:39.055Z,4.64
2017-12-04T06:55:07.419Z,4.71
2017-12-04T06:57:36.526Z,4.72
2017-12-04T07:00:04.943Z,4.70
2017-12-04T07:02:33.318Z,4.68
2017-12-04T07:05:01.702Z,4.70
2017-12-04T07:07:30.114Z,4.75
2017-12-04T07:09:59.266Z,4.75
2017-12-04T07:12:28.030Z,4.79
2017-12-04T07:14:57.990Z,4.75
2017-12-04T07:17:26.417Z,4.81
2017-12-04T07:19:54.827Z,4.81
2017-12-04T07:22:24.310Z,4.83
2017-12-04T07:24:52.670Z,4.85
2017-12-04T07:27:22.262Z,4.87
2017-12-04T07:29:51.862Z,4.85
2017-12-04T07:32:20.837Z,4.89
2017-12-04T07:34:49.570Z,4.84
2017-12-04T07:37:18.298Z,4.86
2017-12-04T07:39:46.677Z,4.88
2017-12-04T07:42:15.018Z,4.95
2017-12-04T07:44:43.390Z,4.90
2017-12-04T07:47:12.166Z,4.90
2017-12-04T07:49:40.522Z,4.90
2017-12-04T07:52:08.914Z,4.93
2017-12-04T07:54:38.086Z,4.94
2017-12-04T07:57:06.486Z,5.01
2017-12-04T07:59:35.773Z,5.02
2017-12-04T08:02:05.014Z,5.03
2017-12-04T08:04:33.482Z,5.03
2017-12-04T08:07:02.730Z,5.09
2017-12-04T08:09:32.435Z,5.13
2017-12-04T08:12:01.330Z,5.09
2017-12-04T08:14:30.582Z,5.12
2017-12-04T08:16:59.725Z,5.22
2017-12-04T08:19:28.607Z,5.30
2017-12-04T08:21:57.333Z,5.34
2017-12-04T08:24:26.576Z,5.34
2017-12-04T08:26:55.162Z,5.30
2017-12-04T08:29:23.538Z,5.26
2017-12-04T08:31:53.265Z,5.31
2017-12-04T08:34:22.490Z,5.36
2017-12-04T08:36:50.849Z,5.37
2017-12-04T08:39:19.241Z,5.43
2017-12-04T08:41:47.659Z,5.42
2017-12-04T08:44:16.398Z,5.41
2017-12-04T08:46:44.966Z,5.38
2017-12-04T08:49:14.694Z,5.37
2017-12-04T08:51:43.445Z,5.34
2017-12-04T08:54:12.101Z,5.36
2017-12-04T08:56:40.469Z,5.43
2017-12-04T08:59:09.590Z,5.52
2017-12-04T09:01:37.963Z,5.56
2017-12-04T09:04:06.413Z,5.62
2017-12-04T09:06:34.809Z,5.70
2017-12-04T09:09:03.578Z,5.78
2017-12-04T09:11:32.059Z,5.83
2017-12-04T09:14:00.834Z,5.84
2017-12-04T09:16:29.213Z,5.76
2017-12-04T09:18:57.561Z,5.80
2017-12-04T09:21:25.950Z,5.82
2017-12-04T09:23:54.707Z,5.71
2017-12-04T09:26:23.104Z,5.63
2017-12-04T09:28:52.609Z,5.57
2017-12-04T09:31:21.010Z,5.58
2017-12-04T09:33:50.157Z,5.54
2017-12-04T09:36:18.557Z,5.69
2017-12-04T09:38:46.913Z,5.96
2017-12-04T09:41:15.306Z,6.10
2017-12-04T09:43:43.653Z,6.07
2017-12-04T09:46:12.798Z,5.92
2017-12-04T09:48:41.165Z,5.75
2017-12-04T09:51:09.537Z,5.56
2017-12-04T09:53:37.881Z,5.38
2017-12-04T09:56:06.967Z,5.34
2017-12-04T09:58:35.458Z,5.47
2017-12-04T10:01:04.184Z,5.38
2017-12-04T10:03:33.733Z,5.26
2017-12-04T10:06:02.897Z,5.17
2017-12-04T10:08:31.249Z,5.24
2017-12-04T10:10:59.645Z,5.68
2017-12-04T10:13:27.977Z,5.76
2017-12-04T10:15:56.349Z,5.47
2017-12-04T10:18:25.085Z,5.29
2017-12-04T10:20:53.489Z,5.20
2017-12-04T10:23:21.825Z,5.17
2017-12-04T10:25:50.957Z,5.07
2017-12-04T10:28:19.351Z,5.14
2017-12-04T10:30:47.712Z,5.26
2017-12-04T10:33:16.937Z,5.38
2017-12-04T10:35:46.057Z,5.70
2017-12-04T10:38:15.949Z,5.82
2017-12-04T10:40:45.112Z,5.92
2017-12-04T10:43:13.437Z,6.09
2017-12-04T10:45:43.321Z,6.05
2017-12-04T10:48:12.049Z,6.06
2017-12-04T10:50:40.785Z,6.22
2017-12-04T10:53:09.185Z,6.31
2017-12-04T10:55:38.292Z,6.18
2017-12-04T10:58:06.693Z,6.13
2017-12-04T11:00:35.085Z,6.18
2017-12-04T11:03:03.444Z,6.23
2017-12-04T11:05:33.235Z,5.96
2017-12-04T11:08:01.566Z,6.22
2017-12-04T11:10:29.940Z,6.16
2017-12-04T11:12:58.266Z,6.08
2017-12-04T11:15:27.393Z,6.04
2017-12-04T11:17:55.857Z,6.17
2017-12-04T11:20:24.964Z,6.36
2017-12-04T11:22:53.688Z,6.55
2017-12-04T11:25:22.812Z,6.86
2017-12-04T11:27:51.153Z,7.01
2017-12-04T11:30:19.532Z,7.08
2017-12-04T11:32:47.876Z,7.11
2017-12-04T11:35:16.217Z,7.21
2017-12-04T11:37:44.566Z,7.31
2017-12-04T11:40:12.910Z,7.39
2017-12-04T11:42:41.332Z,7.04
2017-12-04T11:45:09.688Z,6.85
2017-12-04T11:47:38.013Z,6.75
2017-12-04T11:50:06.791Z,6.60
2017-12-04T11:52:35.577Z,6.40
2017-12-04T11:55:03.904Z,4.75
2017-12-04T11:57:32.681Z,4.12
2017-12-04T12:00:01.032Z,3.94
2017-12-04T12:02:30.504Z,3.91
2017-12-04T12:04:59.636Z,3.75
2017-12-04T12:07:28.728Z,3.81
2017-12-04T12:09:57.073Z,3.77
2017-12-04T12:12:25.507Z,3.75
2017-12-04T12:14:54.668Z,3.65
2017-12-04T12:17:23.017Z,3.56
2017-12-04T12:19:51.340Z,3.60
2017-12-04T12:22:22.240Z,3.63
2017-12-04T12:24:50.587Z,3.72
2017-12-04T12:27:18.964Z,3.62
2017-12-04T12:29:48.824Z,3.46
2017-12-04T12:32:18.039Z,3.31
2017-12-04T12:34:46.439Z,3.18
2017-12-04T12:37:15.588Z,3.14
2017-12-04T12:39:43.977Z,3.00
2017-12-04T12:42:12.717Z,2.93
2017-12-04T12:44:42.623Z,2.90
2017-12-04T12:47:10.988Z,2.84
2017-12-04T12:49:40.084Z,2.78
2017-12-04T12:52:08.526Z,2.71
2017-12-04T12:54:36.948Z,2.61
2017-12-04T12:57:05.692Z,2.57
2017-12-04T12:59:34.751Z,2.56
2017-12-04T13:02:04.249Z,2.57
2017-12-04T13:04:33.343Z,2.54
2017-12-04T13:07:01.725Z,2.44
2017-12-04T13:09:30.064Z,2.50
2017-12-04T13:11:58.428Z,2.51
2017-12-04T13:14:26.789Z,2.49
2017-12-04T13:16:55.888Z,2.60
2017-12-04T13:19:24.257Z,2.82
2017-12-04T13:21:54.133Z,3.00
2017-12-04T13:24:24.000Z,3.11
2017-12-04T13:26:52.452Z,3.07
2017-12-04T13:29:21.513Z,3.09
2017-12-04T13:31:58.579Z,3.10
2017-12-04T13:34:44.659Z,3.08
2017-12-04T13:37:21.192Z,3.08
2017-12-04T13:39:50.915Z,3.17
2017-12-04T13:42:19.709Z,3.23
2017-12-04T13:44:48.124Z,3.28
2017-12-04T13:47:17.664Z,3.30
2017-12-04T13:49:46.004Z,3.26
2017-12-04T13:52:15.139Z,3.20
2017-12-04T13:54:44.639Z,3.24
2017-12-04T13:57:13.787Z,3.14
2017-12-04T13:59:42.149Z,3.17
2017-12-04T14:02:11.655Z,3.27
2017-12-04T14:04:40.075Z,3.31
2017-12-04T14:07:08.407Z,3.23
2017-12-04T14:09:36.764Z,3.19
2017-12-04T14:12:06.267Z,3.19
2017-12-04T14:14:34.603Z,3.13
2017-12-04T14:17:04.479Z,3.02
2017-12-04T14:19:33.599Z,2.99
2017-12-04T14:22:02.331Z,2.88
2017-12-04T14:24:32.044Z,2.92
2017-12-04T14:27:00.419Z,2.85
2017-12-04T14:29:28.742Z,2.87
2017-12-04T14:31:57.103Z,2.80
2017-12-04T14:34:25.425Z,2.84
2017-12-04T14:36:54.567Z,2.66
2017-12-04T14:39:22.911Z,2.60
2017-12-04T14:41:51.659Z,2.67
2017-12-04T14:44:20.015Z,2.62
2017-12-04T14:46:48.358Z,2.52
2017-12-04T14:49:16.727Z,2.67
2017-12-04T14:51:45.063Z,2.67
2017-12-04T14:54:14.608Z,2.54
2017-12-04T14:56:42.955Z,2.49
2017-12-04T14:59:12.104Z,2.46
2017-12-04T15:01:40.511Z,2.42
2017-12-04T15:04:09.618Z,2.43
2017-12-04T15:06:39.538Z,2.37
2017-12-04T15:09:07.995Z,2.31
2017-12-04T15:11:36.354Z,2.39
2017-12-04T15:14:04.754Z,2.46
2017-12-04T15:16:33.158Z,2.44
2017-12-04T15:19:05.375Z,2.37
2017-12-04T15:21:33.802Z,2.24
2017-12-04T15:24:03.274Z,2.21
2017-12-04T15:26:32.695Z,2.12
2017-12-04T15:29:01.059Z,2.10
2017-12-04T15:31:29.658Z,2.06
2017-12-04T15:33:59.246Z,2.05
2017-12-04T15:36:27.998Z,2.09
2017-12-04T15:38:56.563Z,1.92
2017-12-04T15:41:26.272Z,2.04
2017-12-04T15:43:55.426Z,2.11
2017-12-04T15:46:24.219Z,2.18
2017-12-04T15:48:52.990Z,2.16
2017-12-04T15:51:21.370Z,2.27
2017-12-04T15:53:49.752Z,2.37
2017-12-04T15:56:18.149Z,2.42
2017-12-04T15:58:48.042Z,2.50
2017-12-04T16:01:17.770Z,2.54
2017-12-04T16:03:46.170Z,2.55
2017-12-04T16:06:15.903Z,2.64
2017-12-04T16:08:44.754Z,2.71
2017-12-04T16:11:13.925Z,2.71
2017-12-04T16:13:42.426Z,2.65
2017-12-04T16:16:11.163Z,2.49
2017-12-04T16:18:40.386Z,2.29
2017-12-04T16:21:08.806Z,2.04
2017-12-04T16:23:38.334Z,1.95
2017-12-04T16:26:06.714Z,1.90
2017-12-04T16:28:35.118Z,1.92
2017-12-04T16:31:03.890Z,1.94
2017-12-04T16:33:32.622Z,1.98
2017-12-04T16:36:01.080Z,2.02
2017-12-04T16:38:29.534Z,2.01
2017-12-04T16:40:59.298Z,1.98
2017-12-04T16:43:29.397Z,1.90
2017-12-04T16:45:57.946Z,1.85
2017-12-04T16:48:27.582Z,1.93
2017-12-04T16:50:56.430Z,1.92
2017-12-04T16:53:27.101Z,1.89
2017-12-04T16:56:08.094Z,1.90
2017-12-04T16:58:38.739Z,1.87
2017-12-04T17:01:11.018Z,1.86
2017-12-04T17:03:39.762Z,1.95
2017-12-04T17:06:08.283Z,2.07
2017-12-04T17:08:38.690Z,2.10
2017-12-04T17:11:09.225Z,2.10
2017-12-04T17:13:38.917Z,2.08
2017-12-04T17:16:29.445Z,2.01
2017-12-04T17:18:59.608Z,1.98
2017-12-04T17:21:28.077Z,1.98
2017-12-04T17:23:56.441Z,1.97
2017-12-04T17:26:25.233Z,1.96
2017-12-04T17:28:53.582Z,1.91
2017-12-04T17:31:23.074Z,1.89
2017-12-04T17:33:51.450Z,1.81
2017-12-04T17:36:19.853Z,1.90
2017-12-04T17:38:48.625Z,2.00
2017-12-04T17:41:16.986Z,2.13
2017-12-04T17:43:45.389Z,2.23
2017-12-04T17:46:13.805Z,2.26
2017-12-04T17:48:42.238Z,2.24
2017-12-04T17:51:10.597Z,2.28
2017-12-04T17:53:40.229Z,2.25
2017-12-04T17:56:08.720Z,2.25
2017-12-04T17:58:37.857Z,2.31
2017-12-04T18:01:07.782Z,2.37
2017-12-04T18:03:36.161Z,2.52
2017-12-04T18:06:04.545Z,2.61
2017-12-04T18:08:32.921Z,2.61
2017-12-04T18:11:01.703Z,2.67
2017-12-04T18:13:30.127Z,2.71
2017-12-04T18:15:59.074Z,2.71
2017-12-04T18:18:27.492Z,2.73
2017-12-04T18:20:56.005Z,2.77
2017-12-04T18:23:24.352Z,2.74
2017-12-04T18:25:52.747Z,2.78
2017-12-04T18:28:21.865Z,2.69
2017-12-04T18:30:50.265Z,2.62
2017-12-04T18:33:18.628Z,2.59
2017-12-04T18:35:47.849Z,2.44
2017-12-04T18:38:17.605Z,2.30
2017-12-04T18:40:47.092Z,2.25
2017-12-04T18:43:15.437Z,2.11
2017-12-04T18:45:44.659Z,2.14
2017-12-04T18:48:13.445Z,2.13
2017-12-04T18:50:41.800Z,2.18
2017-12-04T18:53:10.177Z,2.01
2017-12-04T18:55:38.550Z,2.06
2017-12-04T18:58:06.925Z,2.07
2017-12-04T19:00:36.793Z,1.91
2017-12-04T19:03:05.142Z,1.73
2017-12-04T19:05:33.907Z,1.67
2017-12-04T19:08:06.270Z,1.62
2017-12-04T19:10:34.630Z,1.64
2017-12-04T19:13:04.629Z,1.72
2017-12-04T19:15:34.353Z,1.76
2017-12-04T19:18:02.761Z,1.73
2017-12-04T19:20:31.921Z,1.77
2017-12-04T19:23:01.089Z,1.72
2017-12-04T19:25:30.197Z,1.65
2017-12-04T19:27:58.598Z,1.49
2017-12-04T19:30:28.304Z,1.36
2017-12-04T19:32:57.419Z,1.53
2017-12-04T19:35:26.405Z,1.34
2017-12-04T19:37:54.796Z,1.16
2017-12-04T19:40:23.532Z,1.08
2017-12-04T19:42:51.916Z,0.98
2017-12-04T19:45:21.125Z,0.94
2017-12-04T19:47:51.488Z,0.90
2017-12-04T19:50:21.580Z,0.80
2017-12-04T19:52:50.840Z,0.72
2017-12-04T19:55:20.029Z,0.76
2017-12-04T19:57:48.827Z,0.71
2017-12-04T20:00:23.638Z,0.63
2017-12-04T20:02:52.349Z,0.58
2017-12-04T20:05:21.497Z,0.57
2017-12-04T20:07:52.340Z,0.54
2017-12-04T20:10:22.533Z,0.60
2017-12-04T20:13:05.272Z,0.82
2017-12-04T20:15:34.324Z,1.09
2017-12-04T20:18:04.289Z,1.25
2017-12-04T20:23:10.616Z,1.56
2017-12-04T20:25:40.425Z,1.62
2017-12-04T20:28:10.328Z,1.63
2017-12-04T20:30:38.758Z,1.64
2017-12-04T20:33:07.099Z,1.66
2017-12-04T20:35:36.740Z,1.66
2017-12-04T20:38:07.696Z,1.62
2017-12-04T20:40:36.901Z,1.58
2017-12-04T20:43:05.693Z,1.54
2017-12-04T20:45:34.527Z,1.39
2017-12-04T20:48:07.290Z,1.30
2017-12-04T20:50:37.842Z,1.24
2017-12-04T20:53:07.065Z,1.23
2017-12-04T20:55:36.331Z,1.26
2017-12-04T20:58:05.487Z,1.25
2017-12-04T21:00:34.414Z,1.18
2017-12-04T21:03:04.148Z,1.14
2017-12-04T21:05:33.321Z,1.14
2017-12-04T21:08:01.720Z,1.03
2017-12-04T21:10:48.587Z,0.94
2017-12-04T21:13:34.852Z,0.85
2017-12-04T21:16:27.227Z,0.82
2017-12-04T21:18:55.870Z,0.86
2017-12-04T21:21:33.897Z,0.81
2017-12-04T21:24:03.671Z,0.75
2017-12-04T21:26:32.092Z,0.68
2017-12-04T21:29:00.488Z,0.72
2017-12-04T21:31:28.831Z,0.79
2017-12-04T21:33:57.220Z,0.78
2017-12-04T21:36:25.604Z,0.62
2017-12-04T21:38:54.040Z,0.59
2017-12-04T21:41:24.171Z,0.64
2017-12-04T21:43:54.103Z,0.74
2017-12-04T21:46:22.659Z,0.66
2017-12-04T21:48:51.115Z,0.56
2017-12-04T21:51:20.344Z,0.59
2017-12-04T21:53:48.739Z,0.54
2017-12-04T21:56:17.083Z,0.46
2017-12-04T21:58:46.639Z,0.47
2017-12-04T22:01:15.005Z,0.58
2017-12-04T22:03:43.763Z,0.57
2017-12-04T22:06:12.912Z,0.56
2017-12-04T22:08:41.291Z,0.52
2017-12-04T22:11:09.699Z,0.49
2017-12-04T22:13:38.843Z,0.39
2017-12-04T22:16:08.015Z,0.33
2017-12-04T22:18:36.415Z,0.41
2017-12-04T22:21:04.783Z,0.50
2017-12-04T22:23:33.211Z,0.40
2017-12-04T22:26:02.675Z,0.34
2017-12-04T22:28:31.022Z,0.34
2017-12-04T22:30:59.775Z,0.30
2017-12-04T22:33:28.235Z,0.32
2017-12-04T22:35:56.591Z,0.44
2017-12-04T22:38:25.758Z,0.51
2017-12-04T22:40:54.875Z,0.52
2017-12-04T22:43:23.276Z,0.67
2017-12-04T22:45:52.548Z,0.75
2017-12-04T22:48:20.896Z,0.77
2017-12-04T22:50:49.267Z,0.86
2017-12-04T22:53:17.705Z,1.03
2017-12-04T22:55:46.543Z,1.16
2017-12-04T22:58:14.978Z,1.19
2017-12-04T23:00:43.318Z,1.33
2017-12-04T23:03:11.723Z,1.42
2017-12-04T23:05:40.130Z,1.47
2017-12-04T23:08:08.563Z,1.51
2017-12-04T23:10:36.946Z,1.65
2017-12-04T23:13:05.310Z,1.73
2017-12-04T23:15:34.031Z,1.81
2017-12-04T23:18:02.922Z,1.86
2017-12-04T23:20:31.239Z,1.87
2017-12-04T23:23:00.706Z,1.82
2017-12-04T23:25:29.122Z,1.64
2017-12-04T23:27:57.470Z,1.49
2017-12-04T23:30:25.852Z,1.46
2017-12-04T23:32:54.242Z,1.42
2017-12-04T23:35:22.604Z,1.35
2017-12-04T23:37:50.975Z,1.37
2017-12-04T23:40:19.610Z,1.41
2017-12-04T23:42:49.472Z,1.43
2017-12-04T23:45:18.050Z,1.42
2017-12-04T23:47:47.809Z,1.52
2017-12-04T23:50:16.146Z,1.59
2017-12-04T23:52:44.518Z,1.69
2017-12-04T23:55:12.857Z,1.83
2017-12-04T23:57:41.603Z,1.92
